sensor_id;sensor_type;location;lat;lon;timestamp;P1;durP1;ratioP1;P2;durP2;ratioP2
2934;SDS011;2462;51.456;7.248;2023-09-12T00:01:42;5.53;;;5.07;;
2934;SDS011;2462;51.456;7.248;2023-09-12T00:04:08;4.80;;;4.40;;
2934;SDS011;2462;51.456;7.248;2023-09-12T00:06:36;6.13;;;5.53;;
2934;SDS011;2462;51.456;7.248;2023-09-12T00:09:02;5.30;;;4.80;;
2934;SDS011;2462;51.456;7.248;2023-09-12T00:11:30;5.37;;;4.90;;
2934;SDS011;2462;51.456;7.248;2023-09-12T00:13:56;4.63;;;4.23;;
2934;SDS011;2462;51.456;7.248;2023-09-12T00:16:22;5.10;;;4.67;;
2934;SDS011;2462;51.456;7.248;2023-09-12T00:18:48;6.30;;;5.70;;
2934;SDS011;2462;51.456;7.248;2023-09-12T00:21:14;5.30;;;4.90;;
2934;SDS011;2462;51.456;7.248;2023-09-12T00:23:40;5.70;;;5.20;;
2934;SDS011;2462;51.456;7.248;2023-09-12T00:26:06;5.13;;;4.73;;
2934;SDS011;2462;51.456;7.248;2023-09-12T00:28:32;5.20;;;4.80;;
2934;SDS011;2462;51.456;7.248;2023-09-12T00:30:59;5.70;;;5.20;;
2934;SDS011;2462;51.456;7.248;2023-09-12T00:33:25;6.10;;;5.60;;
2934;SDS011;2462;51.456;7.248;2023-09-12T00:35:51;4.70;;;4.40;;
2934;SDS011;2462;51.456;7.248;2023-09-12T00:38:17;4.57;;;4.17;;
2934;SDS011;2462;51.456;7.248;2023-09-12T00:40:42;5.10;;;4.70;;
2934;SDS011;2462;51.456;7.248;2023-09-12T00:43:08;5.33;;;4.70;;
2934;SDS011;2462;51.456;7.248;2023-09-12T00:45:35;3.83;;;3.53;;
2934;SDS011;2462;51.456;7.248;2023-09-12T00:48:02;4.70;;;4.30;;
2934;SDS011;2462;51.456;7.248;2023-09-12T00:50:28;5.30;;;4.80;;
2934;SDS011;2462;51.456;7.248;2023-09-12T00:52:55;4.97;;;4.57;;
2934;SDS011;2462;51.456;7.248;2023-09-12T00:55:21;4.90;;;4.50;;
2934;SDS011;2462;51.456;7.248;2023-09-12T00:57:47;4.77;;;4.37;;
2934;SDS011;2462;51.456;7.248;2023-09-12T01:00:13;5.70;;;5.20;;
2934;SDS011;2462;51.456;7.248;2023-09-12T01:02:40;4.87;;;4.47;;
2934;SDS011;2462;51.456;7.248;2023-09-12T01:05:07;5.33;;;4.70;;
2934;SDS011;2462;51.456;7.248;2023-09-12T01:07:33;5.00;;;4.50;;
2934;SDS011;2462;51.456;7.248;2023-09-12T01:09:59;4.93;;;4.53;;
2934;SDS011;2462;51.456;7.248;2023-09-12T01:12:25;4.70;;;4.30;;
2934;SDS011;2462;51.456;7.248;2023-09-12T01:14:51;4.87;;;4.50;;
2934;SDS011;2462;51.456;7.248;2023-09-12T01:17:17;5.30;;;4.60;;
2934;SDS011;2462;51.456;7.248;2023-09-12T01:19:43;4.87;;;4.47;;
2934;SDS011;2462;51.456;7.248;2023-09-12T01:29:58;3.70;;;3.50;;
2934;SDS011;2462;51.456;7.248;2023-09-12T01:32:26;4.50;;;4.20;;
2934;SDS011;2462;51.456;7.248;2023-09-12T01:34:52;4.17;;;3.77;;
2934;SDS011;2462;51.456;7.248;2023-09-12T01:37:18;4.30;;;4.00;;
2934;SDS011;2462;51.456;7.248;2023-09-12T01:39:44;4.90;;;4.60;;
2934;SDS011;2462;51.456;7.248;2023-09-12T01:42:11;4.17;;;3.87;;
2934;SDS011;2462;51.456;7.248;2023-09-12T01:44:39;5.23;;;4.83;;
2934;SDS011;2462;51.456;7.248;2023-09-12T01:47:05;4.30;;;4.00;;
2934;SDS011;2462;51.456;7.248;2023-09-12T01:49:31;4.50;;;4.10;;
2934;SDS011;2462;51.456;7.248;2023-09-12T01:51:58;4.07;;;3.73;;
2934;SDS011;2462;51.456;7.248;2023-09-12T01:54:25;4.03;;;3.73;;
2934;SDS011;2462;51.456;7.248;2023-09-12T01:56:52;4.40;;;4.00;;
2934;SDS011;2462;51.456;7.248;2023-09-12T01:59:18;4.20;;;3.80;;
2934;SDS011;2462;51.456;7.248;2023-09-12T02:01:44;4.57;;;4.17;;
2934;SDS011;2462;51.456;7.248;2023-09-12T02:04:10;4.70;;;4.30;;
2934;SDS011;2462;51.456;7.248;2023-09-12T02:06:36;4.40;;;4.00;;
2934;SDS011;2462;51.456;7.248;2023-09-12T02:09:02;4.30;;;3.90;;
2934;SDS011;2462;51.456;7.248;2023-09-12T02:11:28;4.13;;;3.77;;
2934;SDS011;2462;51.456;7.248;2023-09-12T02:13:54;4.37;;;3.97;;
2934;SDS011;2462;51.456;7.248;2023-09-12T02:16:20;3.57;;;3.27;;
2934;SDS011;2462;51.456;7.248;2023-09-12T02:18:46;4.50;;;4.13;;
2934;SDS011;2462;51.456;7.248;2023-09-12T02:21:13;4.43;;;4.03;;
2934;SDS011;2462;51.456;7.248;2023-09-12T02:23:40;4.73;;;4.40;;
2934;SDS011;2462;51.456;7.248;2023-09-12T02:26:07;4.30;;;4.00;;
2934;SDS011;2462;51.456;7.248;2023-09-12T02:28:33;4.47;;;4.03;;
2934;SDS011;2462;51.456;7.248;2023-09-12T02:30:58;4.83;;;3.63;;
2934;SDS011;2462;51.456;7.248;2023-09-12T02:33:24;4.83;;;3.87;;
2934;SDS011;2462;51.456;7.248;2023-09-12T02:35:50;4.47;;;4.07;;
2934;SDS011;2462;51.456;7.248;2023-09-12T02:38:17;5.07;;;4.57;;
2934;SDS011;2462;51.456;7.248;2023-09-12T02:40:43;4.33;;;3.93;;
2934;SDS011;2462;51.456;7.248;2023-09-12T02:43:09;5.07;;;4.10;;
2934;SDS011;2462;51.456;7.248;2023-09-12T02:45:35;4.50;;;4.10;;
2934;SDS011;2462;51.456;7.248;2023-09-12T02:48:01;4.90;;;4.50;;
2934;SDS011;2462;51.456;7.248;2023-09-12T02:50:27;4.30;;;3.90;;
2934;SDS011;2462;51.456;7.248;2023-09-12T02:52:53;4.00;;;3.70;;
2934;SDS011;2462;51.456;7.248;2023-09-12T02:55:19;4.47;;;3.67;;
2934;SDS011;2462;51.456;7.248;2023-09-12T02:57:45;4.37;;;3.90;;
2934;SDS011;2462;51.456;7.248;2023-09-12T03:00:12;4.70;;;4.30;;
2934;SDS011;2462;51.456;7.248;2023-09-12T03:02:38;4.60;;;4.20;;
2934;SDS011;2462;51.456;7.248;2023-09-12T03:05:04;4.93;;;4.53;;
2934;SDS011;2462;51.456;7.248;2023-09-12T03:07:30;4.87;;;4.47;;
2934;SDS011;2462;51.456;7.248;2023-09-12T03:09:56;4.77;;;4.37;;
2934;SDS011;2462;51.456;7.248;2023-09-12T03:12:22;4.33;;;3.93;;
2934;SDS011;2462;51.456;7.248;2023-09-12T03:14:48;4.40;;;4.00;;
2934;SDS011;2462;51.456;7.248;2023-09-12T03:17:14;4.10;;;3.80;;
2934;SDS011;2462;51.456;7.248;2023-09-12T03:19:40;4.33;;;3.97;;
2934;SDS011;2462;51.456;7.248;2023-09-12T03:22:06;4.60;;;4.20;;
2934;SDS011;2462;51.456;7.248;2023-09-12T03:24:32;4.33;;;3.93;;
2934;SDS011;2462;51.456;7.248;2023-09-12T03:26:58;4.00;;;3.70;;
2934;SDS011;2462;51.456;7.248;2023-09-12T03:29:24;4.67;;;4.30;;
2934;SDS011;2462;51.456;7.248;2023-09-12T03:31:50;4.87;;;3.60;;
2934;SDS011;2462;51.456;7.248;2023-09-12T03:34:16;3.90;;;3.60;;
2934;SDS011;2462;51.456;7.248;2023-09-12T03:36:42;4.97;;;4.57;;
2934;SDS011;2462;51.456;7.248;2023-09-12T03:39:08;4.70;;;4.20;;
2934;SDS011;2462;51.456;7.248;2023-09-12T03:41:34;4.43;;;4.03;;
2934;SDS011;2462;51.456;7.248;2023-09-12T03:44:00;4.27;;;3.90;;
2934;SDS011;2462;51.456;7.248;2023-09-12T03:46:27;3.90;;;3.60;;
2934;SDS011;2462;51.456;7.248;2023-09-12T03:48:53;4.70;;;4.30;;
2934;SDS011;2462;51.456;7.248;2023-09-12T03:51:19;4.33;;;3.93;;
2934;SDS011;2462;51.456;7.248;2023-09-12T03:53:45;4.80;;;4.30;;
2934;SDS011;2462;51.456;7.248;2023-09-12T03:56:12;5.27;;;4.07;;
2934;SDS011;2462;51.456;7.248;2023-09-12T03:58:39;4.93;;;4.50;;
2934;SDS011;2462;51.456;7.248;2023-09-12T04:01:05;4.90;;;4.50;;
2934;SDS011;2462;51.456;7.248;2023-09-12T04:03:31;4.80;;;4.40;;
2934;SDS011;2462;51.456;7.248;2023-09-12T04:05:57;4.70;;;4.30;;
2934;SDS011;2462;51.456;7.248;2023-09-12T04:08:23;4.10;;;3.77;;
2934;SDS011;2462;51.456;7.248;2023-09-12T04:10:49;3.90;;;3.40;;
2934;SDS011;2462;51.456;7.248;2023-09-12T04:13:15;4.33;;;3.93;;
2934;SDS011;2462;51.456;7.248;2023-09-12T04:15:41;3.97;;;3.67;;
2934;SDS011;2462;51.456;7.248;2023-09-12T04:18:07;4.67;;;4.27;;
2934;SDS011;2462;51.456;7.248;2023-09-12T04:20:33;4.70;;;4.30;;
2934;SDS011;2462;51.456;7.248;2023-09-12T04:23:00;4.67;;;4.27;;
2934;SDS011;2462;51.456;7.248;2023-09-12T04:25:27;4.90;;;4.40;;
2934;SDS011;2462;51.456;7.248;2023-09-12T04:27:53;4.23;;;3.93;;
2934;SDS011;2462;51.456;7.248;2023-09-12T04:30:19;5.20;;;4.07;;
2934;SDS011;2462;51.456;7.248;2023-09-12T04:32:45;4.60;;;4.20;;
2934;SDS011;2462;51.456;7.248;2023-09-12T04:35:11;4.50;;;4.10;;
2934;SDS011;2462;51.456;7.248;2023-09-12T04:37:37;4.90;;;4.40;;
2934;SDS011;2462;51.456;7.248;2023-09-12T04:40:03;3.80;;;3.43;;
2934;SDS011;2462;51.456;7.248;2023-09-12T04:42:31;5.43;;;4.10;;
2934;SDS011;2462;51.456;7.248;2023-09-12T04:44:57;5.07;;;4.67;;
2934;SDS011;2462;51.456;7.248;2023-09-12T04:47:23;4.20;;;3.90;;
2934;SDS011;2462;51.456;7.248;2023-09-12T04:49:49;4.47;;;4.17;;
2934;SDS011;2462;51.456;7.248;2023-09-12T04:52:15;4.03;;;3.63;;
2934;SDS011;2462;51.456;7.248;2023-09-12T04:54:41;10.20;;;8.40;;
2934;SDS011;2462;51.456;7.248;2023-09-12T04:57:07;11.93;;;8.43;;
2934;SDS011;2462;51.456;7.248;2023-09-12T04:59:33;11.07;;;7.60;;
2934;SDS011;2462;51.456;7.248;2023-09-12T05:01:59;10.70;;;7.33;;
2934;SDS011;2462;51.456;7.248;2023-09-12T05:04:25;12.00;;;8.07;;
2934;SDS011;2462;51.456;7.248;2023-09-12T05:06:54;7.73;;;6.90;;
2934;SDS011;2462;51.456;7.248;2023-09-12T05:09:20;11.33;;;7.33;;
2934;SDS011;2462;51.456;7.248;2023-09-12T05:11:46;7.43;;;6.70;;
2934;SDS011;2462;51.456;7.248;2023-09-12T05:14:12;8.97;;;7.20;;
2934;SDS011;2462;51.456;7.248;2023-09-12T05:16:38;14.93;;;8.40;;
2934;SDS011;2462;51.456;7.248;2023-09-12T05:19:04;11.07;;;9.03;;
2934;SDS011;2462;51.456;7.248;2023-09-12T05:21:30;9.67;;;7.93;;
2934;SDS011;2462;51.456;7.248;2023-09-12T05:23:56;12.63;;;7.60;;
2934;SDS011;2462;51.456;7.248;2023-09-12T05:26:22;11.87;;;6.40;;
2934;SDS011;2462;51.456;7.248;2023-09-12T05:28:48;11.60;;;7.90;;
2934;SDS011;2462;51.456;7.248;2023-09-12T05:31:14;13.00;;;7.37;;
2934;SDS011;2462;51.456;7.248;2023-09-12T05:33:40;7.40;;;6.67;;
2934;SDS011;2462;51.456;7.248;2023-09-12T05:36:06;9.00;;;7.60;;
2934;SDS011;2462;51.456;7.248;2023-09-12T05:38:32;8.80;;;7.50;;
2934;SDS011;2462;51.456;7.248;2023-09-12T05:40:58;13.60;;;8.37;;
2934;SDS011;2462;51.456;7.248;2023-09-12T05:43:24;73.83;;;9.03;;
2934;SDS011;2462;51.456;7.248;2023-09-12T05:45:50;7.73;;;6.83;;
2934;SDS011;2462;51.456;7.248;2023-09-12T05:48:16;10.20;;;6.43;;
2934;SDS011;2462;51.456;7.248;2023-09-12T05:50:42;9.93;;;6.70;;
2934;SDS011;2462;51.456;7.248;2023-09-12T05:53:08;9.87;;;6.73;;
2934;SDS011;2462;51.456;7.248;2023-09-12T05:55:34;7.03;;;5.93;;
2934;SDS011;2462;51.456;7.248;2023-09-12T05:58:00;10.63;;;6.67;;
2934;SDS011;2462;51.456;7.248;2023-09-12T06:00:26;7.23;;;6.40;;
2934;SDS011;2462;51.456;7.248;2023-09-12T06:02:51;12.13;;;6.17;;
2934;SDS011;2462;51.456;7.248;2023-09-12T06:05:18;10.30;;;6.03;;
2934;SDS011;2462;51.456;7.248;2023-09-12T06:07:44;11.00;;;7.87;;
2934;SDS011;2462;51.456;7.248;2023-09-12T06:10:11;13.33;;;9.53;;
2934;SDS011;2462;51.456;7.248;2023-09-12T06:12:37;10.90;;;9.70;;
2934;SDS011;2462;51.456;7.248;2023-09-12T06:15:03;10.93;;;9.47;;
2934;SDS011;2462;51.456;7.248;2023-09-12T06:17:30;11.77;;;8.83;;
2934;SDS011;2462;51.456;7.248;2023-09-12T06:19:56;10.30;;;9.00;;
2934;SDS011;2462;51.456;7.248;2023-09-12T06:22:22;10.63;;;9.07;;
2934;SDS011;2462;51.456;7.248;2023-09-12T06:24:48;14.90;;;7.63;;
2934;SDS011;2462;51.456;7.248;2023-09-12T06:27:14;9.43;;;7.17;;
2934;SDS011;2462;51.456;7.248;2023-09-12T06:29:47;9.30;;;6.47;;
2934;SDS011;2462;51.456;7.248;2023-09-12T06:32:17;11.40;;;6.83;;
2934;SDS011;2462;51.456;7.248;2023-09-12T06:34:43;7.47;;;6.77;;
2934;SDS011;2462;51.456;7.248;2023-09-12T06:37:10;8.90;;;6.07;;
2934;SDS011;2462;51.456;7.248;2023-09-12T06:39:36;12.93;;;6.03;;
2934;SDS011;2462;51.456;7.248;2023-09-12T06:42:02;9.60;;;6.13;;
2934;SDS011;2462;51.456;7.248;2023-09-12T06:44:28;9.10;;;6.60;;
2934;SDS011;2462;51.456;7.248;2023-09-12T06:46:54;7.23;;;5.37;;
2934;SDS011;2462;51.456;7.248;2023-09-12T06:49:20;7.10;;;6.00;;
2934;SDS011;2462;51.456;7.248;2023-09-12T06:51:46;7.90;;;6.07;;
2934;SDS011;2462;51.456;7.248;2023-09-12T06:54:12;8.07;;;5.70;;
2934;SDS011;2462;51.456;7.248;2023-09-12T06:56:38;7.47;;;6.43;;
2934;SDS011;2462;51.456;7.248;2023-09-12T06:59:06;8.43;;;5.80;;
2934;SDS011;2462;51.456;7.248;2023-09-12T07:01:32;6.13;;;5.40;;
2934;SDS011;2462;51.456;7.248;2023-09-12T07:03:58;8.30;;;6.67;;
2934;SDS011;2462;51.456;7.248;2023-09-12T07:06:24;7.00;;;6.30;;
2934;SDS011;2462;51.456;7.248;2023-09-12T07:08:50;7.70;;;6.60;;
2934;SDS011;2462;51.456;7.248;2023-09-12T07:11:16;7.73;;;5.47;;
2934;SDS011;2462;51.456;7.248;2023-09-12T07:13:44;7.50;;;5.23;;
2934;SDS011;2462;51.456;7.248;2023-09-12T07:16:10;6.20;;;5.53;;
2934;SDS011;2462;51.456;7.248;2023-09-12T07:18:36;6.43;;;5.80;;
2934;SDS011;2462;51.456;7.248;2023-09-12T07:21:03;7.43;;;5.33;;
2934;SDS011;2462;51.456;7.248;2023-09-12T07:23:29;6.37;;;5.77;;
2934;SDS011;2462;51.456;7.248;2023-09-12T07:25:55;6.53;;;5.07;;
2934;SDS011;2462;51.456;7.248;2023-09-12T07:28:24;8.37;;;4.63;;
2934;SDS011;2462;51.456;7.248;2023-09-12T07:30:50;6.67;;;4.70;;
2934;SDS011;2462;51.456;7.248;2023-09-12T07:33:16;5.57;;;5.07;;
2934;SDS011;2462;51.456;7.248;2023-09-12T07:35:42;4.87;;;4.37;;
2934;SDS011;2462;51.456;7.248;2023-09-12T07:38:08;6.27;;;5.47;;
2934;SDS011;2462;51.456;7.248;2023-09-12T07:40:34;7.17;;;5.20;;
2934;SDS011;2462;51.456;7.248;2023-09-12T07:43:00;5.77;;;4.60;;
2934;SDS011;2462;51.456;7.248;2023-09-12T07:45:27;8.00;;;5.37;;
2934;SDS011;2462;51.456;7.248;2023-09-12T07:47:54;6.37;;;5.00;;
2934;SDS011;2462;51.456;7.248;2023-09-12T07:50:20;7.53;;;4.77;;
2934;SDS011;2462;51.456;7.248;2023-09-12T07:52:46;8.63;;;5.60;;
2934;SDS011;2462;51.456;7.248;2023-09-12T07:55:12;6.17;;;5.00;;
2934;SDS011;2462;51.456;7.248;2023-09-12T07:57:38;5.33;;;4.83;;
2934;SDS011;2462;51.456;7.248;2023-09-12T08:00:04;4.77;;;4.37;;
2934;SDS011;2462;51.456;7.248;2023-09-12T08:02:34;5.63;;;4.40;;
2934;SDS011;2462;51.456;7.248;2023-09-12T08:05:00;5.43;;;4.60;;
2934;SDS011;2462;51.456;7.248;2023-09-12T08:07:26;4.47;;;4.07;;
2934;SDS011;2462;51.456;7.248;2023-09-12T08:09:53;4.47;;;4.10;;
2934;SDS011;2462;51.456;7.248;2023-09-12T08:12:20;5.80;;;5.00;;
2934;SDS011;2462;51.456;7.248;2023-09-12T08:14:46;4.57;;;3.97;;
2934;SDS011;2462;51.456;7.248;2023-09-12T08:17:13;7.57;;;4.27;;
2934;SDS011;2462;51.456;7.248;2023-09-12T08:19:39;5.90;;;4.17;;
2934;SDS011;2462;51.456;7.248;2023-09-12T08:22:05;3.83;;;3.43;;
2934;SDS011;2462;51.456;7.248;2023-09-12T08:24:31;4.53;;;4.10;;
2934;SDS011;2462;51.456;7.248;2023-09-12T08:26:58;4.50;;;4.10;;
2934;SDS011;2462;51.456;7.248;2023-09-12T08:29:24;4.37;;;3.50;;
2934;SDS011;2462;51.456;7.248;2023-09-12T08:31:50;5.50;;;4.70;;
2934;SDS011;2462;51.456;7.248;2023-09-12T08:34:15;4.60;;;4.20;;
2934;SDS011;2462;51.456;7.248;2023-09-12T08:36:41;5.00;;;4.00;;
2934;SDS011;2462;51.456;7.248;2023-09-12T08:39:11;4.70;;;4.30;;
2934;SDS011;2462;51.456;7.248;2023-09-12T08:41:37;4.10;;;3.70;;
2934;SDS011;2462;51.456;7.248;2023-09-12T08:44:04;6.30;;;4.20;;
2934;SDS011;2462;51.456;7.248;2023-09-12T08:46:33;4.60;;;3.57;;
2934;SDS011;2462;51.456;7.248;2023-09-12T08:48:59;3.60;;;3.30;;
2934;SDS011;2462;51.456;7.248;2023-09-12T08:51:25;6.00;;;4.03;;
2934;SDS011;2462;51.456;7.248;2023-09-12T08:53:51;3.43;;;3.13;;
2934;SDS011;2462;51.456;7.248;2023-09-12T08:56:18;3.63;;;3.30;;
2934;SDS011;2462;51.456;7.248;2023-09-12T08:58:44;3.53;;;3.23;;
2934;SDS011;2462;51.456;7.248;2023-09-12T09:01:13;4.20;;;3.10;;
2934;SDS011;2462;51.456;7.248;2023-09-12T09:03:42;3.43;;;3.13;;
2934;SDS011;2462;51.456;7.248;2023-09-12T09:06:10;4.20;;;2.93;;
2934;SDS011;2462;51.456;7.248;2023-09-12T09:08:36;3.73;;;3.30;;
2934;SDS011;2462;51.456;7.248;2023-09-12T09:11:02;3.90;;;3.60;;
2934;SDS011;2462;51.456;7.248;2023-09-12T09:13:30;3.70;;;3.23;;
2934;SDS011;2462;51.456;7.248;2023-09-12T09:16:12;4.40;;;3.47;;
2934;SDS011;2462;51.456;7.248;2023-09-12T09:18:52;2.67;;;2.47;;
2934;SDS011;2462;51.456;7.248;2023-09-12T09:21:18;6.80;;;5.20;;
2934;SDS011;2462;51.456;7.248;2023-09-12T09:23:45;8.73;;;7.87;;
2934;SDS011;2462;51.456;7.248;2023-09-12T09:26:11;8.93;;;8.13;;
2934;SDS011;2462;51.456;7.248;2023-09-12T09:28:37;11.13;;;9.37;;
2934;SDS011;2462;51.456;7.248;2023-09-12T09:31:04;10.00;;;9.00;;
2934;SDS011;2462;51.456;7.248;2023-09-12T09:33:34;12.47;;;9.60;;
2934;SDS011;2462;51.456;7.248;2023-09-12T09:36:04;11.80;;;10.67;;
2934;SDS011;2462;51.456;7.248;2023-09-12T09:38:30;12.90;;;11.13;;
2934;SDS011;2462;51.456;7.248;2023-09-12T09:40:56;11.93;;;10.73;;
2934;SDS011;2462;51.456;7.248;2023-09-12T09:43:22;12.43;;;11.10;;
2934;SDS011;2462;51.456;7.248;2023-09-12T09:45:50;11.90;;;10.70;;
2934;SDS011;2462;51.456;7.248;2023-09-12T09:48:19;14.37;;;11.07;;
2934;SDS011;2462;51.456;7.248;2023-09-12T09:50:45;12.47;;;10.90;;
2934;SDS011;2462;51.456;7.248;2023-09-12T09:53:11;12.73;;;10.80;;
2934;SDS011;2462;51.456;7.248;2023-09-12T09:55:37;12.10;;;10.90;;
2934;SDS011;2462;51.456;7.248;2023-09-12T09:58:05;11.23;;;10.17;;
2934;SDS011;2462;51.456;7.248;2023-09-12T10:00:33;11.80;;;10.83;;
2934;SDS011;2462;51.456;7.248;2023-09-12T10:02:59;11.40;;;10.30;;
2934;SDS011;2462;51.456;7.248;2023-09-12T10:05:25;10.60;;;9.57;;
2934;SDS011;2462;51.456;7.248;2023-09-12T10:07:52;11.33;;;10.17;;
2934;SDS011;2462;51.456;7.248;2023-09-12T10:10:19;11.77;;;10.73;;
2934;SDS011;2462;51.456;7.248;2023-09-12T10:12:49;14.37;;;11.57;;
2934;SDS011;2462;51.456;7.248;2023-09-12T10:15:17;11.93;;;10.80;;
2934;SDS011;2462;51.456;7.248;2023-09-12T10:17:44;10.77;;;9.67;;
2934;SDS011;2462;51.456;7.248;2023-09-12T10:20:14;10.80;;;9.80;;
2934;SDS011;2462;51.456;7.248;2023-09-12T10:22:43;10.67;;;9.67;;
2934;SDS011;2462;51.456;7.248;2023-09-12T10:25:13;12.30;;;9.77;;
2934;SDS011;2462;51.456;7.248;2023-09-12T10:27:39;10.23;;;9.33;;
2934;SDS011;2462;51.456;7.248;2023-09-12T10:30:05;10.63;;;9.53;;
2934;SDS011;2462;51.456;7.248;2023-09-12T10:32:32;8.53;;;7.63;;
2934;SDS011;2462;51.456;7.248;2023-09-12T10:34:59;7.63;;;6.83;;
2934;SDS011;2462;51.456;7.248;2023-09-12T10:37:26;8.40;;;7.50;;
2934;SDS011;2462;51.456;7.248;2023-09-12T10:39:53;8.57;;;7.30;;
2934;SDS011;2462;51.456;7.248;2023-09-12T10:42:19;7.33;;;6.30;;
2934;SDS011;2462;51.456;7.248;2023-09-12T10:44:46;8.53;;;7.67;;
2934;SDS011;2462;51.456;7.248;2023-09-12T10:47:12;8.03;;;7.27;;
2934;SDS011;2462;51.456;7.248;2023-09-12T10:49:39;7.90;;;7.10;;
2934;SDS011;2462;51.456;7.248;2023-09-12T10:52:05;8.73;;;7.90;;
2934;SDS011;2462;51.456;7.248;2023-09-12T10:54:38;8.07;;;7.27;;
2934;SDS011;2462;51.456;7.248;2023-09-12T10:59:33;7.47;;;6.77;;
2934;SDS011;2462;51.456;7.248;2023-09-12T11:04:46;6.97;;;6.20;;
2934;SDS011;2462;51.456;7.248;2023-09-12T11:12:42;8.00;;;5.37;;
2934;SDS011;2462;51.456;7.248;2023-09-12T11:15:09;4.77;;;4.37;;
2934;SDS011;2462;51.456;7.248;2023-09-12T11:17:42;4.83;;;4.07;;
2934;SDS011;2462;51.456;7.248;2023-09-12T11:20:08;4.47;;;4.13;;
2934;SDS011;2462;51.456;7.248;2023-09-12T11:22:42;4.60;;;4.20;;
2934;SDS011;2462;51.456;7.248;2023-09-12T11:27:45;5.17;;;4.67;;
2934;SDS011;2462;51.456;7.248;2023-09-12T11:30:12;5.47;;;4.20;;
2934;SDS011;2462;51.456;7.248;2023-09-12T11:32:38;5.27;;;4.83;;
2934;SDS011;2462;51.456;7.248;2023-09-12T11:35:04;5.50;;;5.00;;
2934;SDS011;2462;51.456;7.248;2023-09-12T11:37:30;5.90;;;4.87;;
2934;SDS011;2462;51.456;7.248;2023-09-12T11:39:58;4.97;;;4.20;;
2934;SDS011;2462;51.456;7.248;2023-09-12T11:42:24;5.10;;;4.60;;
2934;SDS011;2462;51.456;7.248;2023-09-12T11:44:50;6.50;;;4.47;;
2934;SDS011;2462;51.456;7.248;2023-09-12T11:47:18;4.90;;;4.40;;
2934;SDS011;2462;51.456;7.248;2023-09-12T11:49:45;5.30;;;4.90;;
2934;SDS011;2462;51.456;7.248;2023-09-12T11:52:11;4.20;;;3.80;;
2934;SDS011;2462;51.456;7.248;2023-09-12T11:54:38;4.90;;;4.50;;
2934;SDS011;2462;51.456;7.248;2023-09-12T11:57:05;6.10;;;4.77;;
2934;SDS011;2462;51.456;7.248;2023-09-12T11:59:32;5.13;;;4.63;;
2934;SDS011;2462;51.456;7.248;2023-09-12T12:02:00;6.97;;;4.07;;
2934;SDS011;2462;51.456;7.248;2023-09-12T12:04:26;4.87;;;4.37;;
2934;SDS011;2462;51.456;7.248;2023-09-12T12:06:52;5.63;;;4.17;;
2934;SDS011;2462;51.456;7.248;2023-09-12T12:09:18;4.27;;;3.97;;
2934;SDS011;2462;51.456;7.248;2023-09-12T12:11:47;5.63;;;3.80;;
2934;SDS011;2462;51.456;7.248;2023-09-12T12:14:14;9.13;;;8.23;;
2934;SDS011;2462;51.456;7.248;2023-09-12T12:16:40;8.70;;;6.80;;
2934;SDS011;2462;51.456;7.248;2023-09-12T12:19:07;6.53;;;4.80;;
2934;SDS011;2462;51.456;7.248;2023-09-12T12:21:33;5.27;;;4.80;;
2934;SDS011;2462;51.456;7.248;2023-09-12T12:23:59;4.77;;;4.37;;
2934;SDS011;2462;51.456;7.248;2023-09-12T12:26:26;4.83;;;4.40;;
2934;SDS011;2462;51.456;7.248;2023-09-12T12:28:52;7.90;;;5.07;;
2934;SDS011;2462;51.456;7.248;2023-09-12T12:31:18;5.43;;;4.83;;
2934;SDS011;2462;51.456;7.248;2023-09-12T12:33:52;5.30;;;4.90;;
2934;SDS011;2462;51.456;7.248;2023-09-12T12:36:18;5.00;;;4.50;;
2934;SDS011;2462;51.456;7.248;2023-09-12T12:38:45;5.40;;;4.50;;
2934;SDS011;2462;51.456;7.248;2023-09-12T12:41:13;4.80;;;4.40;;
2934;SDS011;2462;51.456;7.248;2023-09-12T12:43:40;5.73;;;5.23;;
2934;SDS011;2462;51.456;7.248;2023-09-12T12:46:09;5.20;;;4.35;;
2934;SDS011;2462;51.456;7.248;2023-09-12T12:48:37;8.07;;;6.00;;
2934;SDS011;2462;51.456;7.248;2023-09-12T12:51:13;7.00;;;4.83;;
2934;SDS011;2462;51.456;7.248;2023-09-12T12:53:41;6.10;;;5.10;;
2934;SDS011;2462;51.456;7.248;2023-09-12T12:56:08;5.43;;;5.03;;
2934;SDS011;2462;51.456;7.248;2023-09-12T12:58:34;6.40;;;5.23;;
2934;SDS011;2462;51.456;7.248;2023-09-12T13:01:00;5.30;;;4.80;;
2934;SDS011;2462;51.456;7.248;2023-09-12T13:03:26;5.70;;;5.17;;
2934;SDS011;2462;51.456;7.248;2023-09-12T13:05:52;5.77;;;5.20;;
2934;SDS011;2462;51.456;7.248;2023-09-12T13:08:18;4.80;;;4.40;;
2934;SDS011;2462;51.456;7.248;2023-09-12T13:10:44;6.30;;;5.10;;
2934;SDS011;2462;51.456;7.248;2023-09-12T13:13:10;5.47;;;4.97;;
2934;SDS011;2462;51.456;7.248;2023-09-12T13:15:36;6.20;;;5.60;;
2934;SDS011;2462;51.456;7.248;2023-09-12T13:18:02;6.73;;;6.10;;
2934;SDS011;2462;51.456;7.248;2023-09-12T13:20:29;6.53;;;5.90;;
2934;SDS011;2462;51.456;7.248;2023-09-12T13:22:54;5.60;;;5.10;;
2934;SDS011;2462;51.456;7.248;2023-09-12T13:25:20;6.97;;;5.97;;
2934;SDS011;2462;51.456;7.248;2023-09-12T13:27:48;7.70;;;6.72;;
2934;SDS011;2462;51.456;7.248;2023-09-12T13:30:14;7.43;;;5.67;;
2934;SDS011;2462;51.456;7.248;2023-09-12T13:32:40;9.20;;;6.30;;
2934;SDS011;2462;51.456;7.248;2023-09-12T13:35:06;6.73;;;5.33;;
2934;SDS011;2462;51.456;7.248;2023-09-12T13:37:33;5.73;;;5.23;;
2934;SDS011;2462;51.456;7.248;2023-09-12T13:39:58;10.63;;;5.23;;
2934;SDS011;2462;51.456;7.248;2023-09-12T13:42:24;6.40;;;5.80;;
2934;SDS011;2462;51.456;7.248;2023-09-12T13:44:55;7.17;;;5.83;;
2934;SDS011;2462;51.456;7.248;2023-09-12T13:47:21;6.93;;;6.00;;
2934;SDS011;2462;51.456;7.248;2023-09-12T13:49:48;6.00;;;5.40;;
2934;SDS011;2462;51.456;7.248;2023-09-12T13:52:13;7.70;;;6.40;;
2934;SDS011;2462;51.456;7.248;2023-09-12T13:54:40;7.90;;;5.83;;
2934;SDS011;2462;51.456;7.248;2023-09-12T13:57:06;6.50;;;5.57;;
2934;SDS011;2462;51.456;7.248;2023-09-12T13:59:31;7.47;;;5.83;;
2934;SDS011;2462;51.456;7.248;2023-09-12T14:01:57;7.40;;;5.70;;
2934;SDS011;2462;51.456;7.248;2023-09-12T14:04:23;7.13;;;6.53;;
2934;SDS011;2462;51.456;7.248;2023-09-12T14:06:49;6.80;;;6.30;;
2934;SDS011;2462;51.456;7.248;2023-09-12T14:09:16;10.37;;;6.93;;
2934;SDS011;2462;51.456;7.248;2023-09-12T14:11:42;7.67;;;6.97;;
2934;SDS011;2462;51.456;7.248;2023-09-12T14:14:08;6.47;;;5.77;;
2934;SDS011;2462;51.456;7.248;2023-09-12T14:16:34;7.33;;;6.60;;
2934;SDS011;2462;51.456;7.248;2023-09-12T14:19:00;6.73;;;5.90;;
2934;SDS011;2462;51.456;7.248;2023-09-12T14:21:26;8.23;;;6.40;;
2934;SDS011;2462;51.456;7.248;2023-09-12T14:23:52;6.30;;;5.70;;
2934;SDS011;2462;51.456;7.248;2023-09-12T14:26:21;7.43;;;6.10;;
2934;SDS011;2462;51.456;7.248;2023-09-12T14:28:47;9.30;;;6.90;;
2934;SDS011;2462;51.456;7.248;2023-09-12T14:31:13;7.30;;;6.60;;
2934;SDS011;2462;51.456;7.248;2023-09-12T14:33:40;8.50;;;7.50;;
2934;SDS011;2462;51.456;7.248;2023-09-12T14:36:07;7.67;;;6.63;;
2934;SDS011;2462;51.456;7.248;2023-09-12T14:38:34;6.60;;;6.00;;
2934;SDS011;2462;51.456;7.248;2023-09-12T14:40:59;7.53;;;6.67;;
2934;SDS011;2462;51.456;7.248;2023-09-12T14:43:25;7.23;;;6.37;;
2934;SDS011;2462;51.456;7.248;2023-09-12T14:45:53;7.53;;;6.73;;
2934;SDS011;2462;51.456;7.248;2023-09-12T14:48:19;7.77;;;6.00;;
2934;SDS011;2462;51.456;7.248;2023-09-12T14:50:45;7.20;;;6.50;;
2934;SDS011;2462;51.456;7.248;2023-09-12T14:53:15;7.50;;;6.90;;
2934;SDS011;2462;51.456;7.248;2023-09-12T14:55:41;9.07;;;7.10;;
2934;SDS011;2462;51.456;7.248;2023-09-12T14:58:07;8.67;;;7.80;;
2934;SDS011;2462;51.456;7.248;2023-09-12T15:00:33;9.70;;;7.33;;
2934;SDS011;2462;51.456;7.248;2023-09-12T15:03:03;7.27;;;6.60;;
2934;SDS011;2462;51.456;7.248;2023-09-12T15:05:29;8.60;;;7.80;;
2934;SDS011;2462;51.456;7.248;2023-09-12T15:07:55;10.20;;;6.80;;
2934;SDS011;2462;51.456;7.248;2023-09-12T15:10:21;8.20;;;7.40;;
2934;SDS011;2462;51.456;7.248;2023-09-12T15:12:47;7.80;;;7.10;;
2934;SDS011;2462;51.456;7.248;2023-09-12T15:15:13;8.03;;;7.23;;
2934;SDS011;2462;51.456;7.248;2023-09-12T15:17:39;8.07;;;6.97;;
2934;SDS011;2462;51.456;7.248;2023-09-12T15:20:05;7.90;;;7.10;;
2934;SDS011;2462;51.456;7.248;2023-09-12T15:22:32;9.13;;;7.90;;
2934;SDS011;2462;51.456;7.248;2023-09-12T15:24:59;12.17;;;8.73;;
2934;SDS011;2462;51.456;7.248;2023-09-12T15:27:25;9.30;;;8.40;;
2934;SDS011;2462;51.456;7.248;2023-09-12T15:29:51;11.82;;;9.15;;